Time;durP1;ratioP1;P1;durP2;ratioP2;P2;SDS_P1;SDS_P2;PMS_P1;PMS_P2;Temp;Humidity;BMP_temperature;BMP_pressure;BME280_temperature;BME280_humidity;BME280_pressure;Samples;Min_cycle;Max_cycle;Signal;HPM_P1;HPM_P2
2022/12/26 00:01:30;;;;;;;9.70;5.82;;;;;;;4.59;73.98;102298.59;5056494;28;20028;-79
2022/12/26 00:03:56;;;;;;;12.18;4.03;;;;;;;4.52;74.02;102290.88;5039468;28;20031;-80
2022/12/26 00:06:24;;;;;;;10.93;4.97;;;;;;;4.48;74.04;102286.59;5056300;28;20103;-79
2022/12/26 00:08:49;;;;;;;8.57;3.92;;;;;;;4.55;74.30;102306.28;5073015;28;20085;-79
2022/12/26 00:11:15;;;;;;;7.90;4.22;;;;;;;4.51;74.48;102305.41;5056216;28;20406;-81
2022/12/26 00:13:40;;;;;;;4.65;2.50;;;;;;;4.55;74.18;102307.13;5056312;28;20021;-80
2022/12/26 00:16:10;;;;;;;9.82;4.13;;;;;;;4.52;74.35;102309.69;5056360;28;20108;-79
2022/12/26 00:18:36;;;;;;;7.03;3.25;;;;;;;4.46;74.72;102308.81;5055729;28;20600;-79
2022/12/26 00:21:02;;;;;;;5.78;3.60;;;;;;;4.49;74.45;102299.41;5039556;28;20028;-79
2022/12/26 00:23:27;;;;;;;7.80;3.28;;;;;;;4.45;74.40;102284.03;5072484;28;20039;-79
2022/12/26 00:25:53;;;;;;;7.72;4.20;;;;;;;4.59;74.29;102318.25;5039448;28;20521;-80
2022/12/26 00:28:18;;;;;;;4.47;3.45;;;;;;;4.49;74.34;102298.56;5056440;28;20036;-79
2022/12/26 00:30:44;;;;;;;6.75;4.10;;;;;;;4.44;74.41;102290.03;5056382;28;20028;-79
2022/12/26 00:33:09;;;;;;;6.53;4.50;;;;;;;4.52;74.02;102306.25;5055718;28;20107;-79
2022/12/26 00:35:34;;;;;;;6.60;3.60;;;;;;;4.55;74.50;102311.41;5055997;28;20021;-79
2022/12/26 00:38:00;;;;;;;52.75;3.97;;;;;;;4.53;74.17;102302.88;5072605;28;20035;-79
2022/12/26 00:40:25;;;;;;;5.07;3.80;;;;;;;4.41;74.22;102290.00;5072206;28;20445;-80
2022/12/26 00:42:51;;;;;;;6.00;3.15;;;;;;;4.40;74.39;102301.94;5055699;28;20033;-79
2022/12/26 00:45:17;;;;;;;9.05;3.63;;;;;;;4.50;74.28;102310.53;5072319;28;20379;-79
2022/12/26 00:47:42;;;;;;;8.55;3.53;;;;;;;4.33;74.62;102302.81;5072102;28;20032;-79
2022/12/26 00:50:08;;;;;;;12.75;3.00;;;;;;;4.25;73.94;102297.63;5038969;28;20463;-79
2022/12/26 00:52:33;;;;;;;8.20;3.40;;;;;;;4.28;74.36;102307.88;5072247;28;20024;-79
2022/12/26 00:54:59;;;;;;;9.60;3.50;;;;;;;4.08;74.70;102278.78;5072004;28;20103;-79
2022/12/26 00:57:24;;;;;;;3.45;2.70;;;;;;;4.17;74.51;102294.19;5055454;28;20029;-79
2022/12/26 01:02:36;;;;;;;5.80;4.15;;;;;;;4.14;74.56;102296.75;5056125;28;20340;-79
2022/12/26 01:05:02;;;;;;;8.90;3.97;;;;;;;4.07;74.62;102301.81;5072239;28;20086;-79
2022/12/26 01:07:28;;;;;;;8.90;5.03;;;;;;;3.96;74.61;102282.16;5072067;28;20033;-79
2022/12/26 01:09:53;;;;;;;7.65;4.65;;;;;;;4.06;74.61;102293.28;5071689;28;20556;-79
2022/12/26 01:12:19;;;;;;;5.90;3.78;;;;;;;4.08;74.70;102299.25;5088633;28;20029;-79
2022/12/26 01:14:44;;;;;;;6.03;3.60;;;;;;;3.85;75.31;102276.13;5038532;28;20025;-79
2022/12/26 01:17:10;;;;;;;5.95;3.90;;;;;;;3.99;75.21;102307.75;5071304;28;20024;-80
2022/12/26 01:19:36;;;;;;;8.13;3.50;;;;;;;3.92;75.75;102292.34;5071513;28;20106;-79
2022/12/26 01:22:01;;;;;;;6.72;3.83;;;;;;;3.96;75.95;102294.09;5071391;28;20490;-79
2022/12/26 01:24:27;;;;;;;6.30;3.30;;;;;;;3.99;75.77;102300.06;5071737;28;20032;-79
2022/12/26 01:26:52;;;;;;;4.20;2.58;;;;;;;3.93;75.43;102292.38;5038074;28;20510;-79
2022/12/26 01:29:18;;;;;;;6.88;3.72;;;;;;;3.96;76.10;102310.31;5071566;28;20024;-79
2022/12/26 01:31:43;;;;;;;4.95;3.30;;;;;;;3.94;76.12;102306.03;5054390;28;20470;-79
2022/12/26 01:34:09;;;;;;;7.13;4.22;;;;;;;3.97;76.71;102321.41;5071607;28;20032;-79
2022/12/26 01:36:34;;;;;;;9.15;4.55;;;;;;;4.06;76.08;102313.78;5054914;28;20067;-79
2022/12/26 01:38:59;;;;;;;5.88;3.60;;;;;;;4.05;76.09;102319.75;5054794;28;20090;-82
2022/12/26 01:41:25;;;;;;;5.43;3.90;;;;;;;3.90;76.57;102300.03;5054634;28;20035;-79
2022/12/26 01:43:51;;;;;;;5.55;2.80;;;;;;;4.05;76.70;102322.31;5071324;28;20036;-79
2022/12/26 01:46:18;;;;;;;5.28;4.47;;;;;;;3.94;77.31;102321.41;5072186;28;20056;-79
2022/12/26 01:48:43;;;;;;;4.05;2.55;;;;;;;3.92;77.32;102323.94;5038164;28;20031;-79
2022/12/26 01:51:09;;;;;;;6.50;2.97;;;;;;;3.89;76.86;102329.03;5037866;28;20036;-79
2022/12/26 01:53:38;;;;;;;6.22;3.88;;;;;;;3.86;77.04;102338.41;5054404;28;20036;-79
2022/12/26 01:56:09;;;;;;;9.10;5.13;;;;;;;3.79;76.59;102323.88;5071059;28;20029;-79
2022/12/26 01:58:40;;;;;;;3.60;3.22;;;;;;;3.75;77.07;102333.22;5071448;28;20063;-79
2022/12/26 02:01:06;;;;;;;8.65;5.13;;;;;;;3.73;77.18;102329.78;5054548;28;20521;-79
2022/12/26 02:06:16;;;;;;;6.60;3.70;;;;;;;3.58;77.06;102325.44;5056834;28;20125;-79
2022/12/26 02:08:42;;;;;;;8.65;4.22;;;;;;;3.55;77.21;102322.00;5070677;28;20043;-79
2022/12/26 02:11:40;;;;;;;5.65;4.30;;;;;;;3.55;77.45;102340.78;5070530;28;20047;-79
2022/12/26 02:14:06;;;;;;;11.45;3.42;;;;;;;3.57;77.36;102340.78;5070305;28;20020;-79
2022/12/26 02:16:31;;;;;;;7.25;4.38;;;;;;;3.44;77.18;102314.22;5070767;28;20021;-80
2022/12/26 02:18:57;;;;;;;4.50;2.83;;;;;;;3.47;77.44;102309.16;5037203;28;20043;-79
2022/12/26 02:21:31;;;;;;;6.63;3.58;;;;;;;3.51;77.21;102331.34;5053896;28;20063;-80
2022/12/26 02:24:25;;;;;;;10.48;5.28;;;;;;;3.56;77.37;102345.03;5071511;28;20060;-79
2022/12/26 02:26:56;;;;;;;;;;;;;;;3.55;77.51;102348.44;5072208;28;20101;-79
2022/12/26 02:29:24;;;;;;;26.58;5.45;;;;;;;3.49;77.62;102350.94;5070091;28;19981;-79
2022/12/26 02:32:01;;;;;;;12.68;5.72;;;;;;;3.54;77.38;102344.19;5071786;28;20036;-79
2022/12/26 02:34:39;;;;;;;7.97;4.78;;;;;;;3.51;77.38;102344.13;5070234;28;20029;-79
2022/12/26 02:37:30;;;;;;;5.43;4.07;;;;;;;3.47;77.54;102331.31;5071416;28;20483;-79
2022/12/26 02:40:26;;;;;;;9.95;6.18;;;;;;;3.42;77.82;102337.25;5055167;28;20522;-80
2022/12/26 02:42:57;;;;;;;10.00;6.25;;;;;;;3.37;77.86;102332.97;5069696;28;20021;-79
2022/12/26 02:49:03;;;;;;;12.25;6.05;;;;;;;3.44;77.34;102333.03;5058875;28;20051;-79
2022/12/26 03:15:00;;;;;;;13.90;7.40;;;;;;;3.27;78.52;102300.47;5055799;28;20043;-80
2022/12/26 03:17:30;;;;;;;13.48;7.30;;;;;;;3.24;79.07;102292.75;5036456;28;20020;-79
2022/12/26 03:20:00;;;;;;;11.10;8.20;;;;;;;3.17;79.54;102305.50;5069461;28;20048;-79
2022/12/26 03:22:53;;;;;;;11.13;5.78;;;;;;;3.24;78.84;102308.09;5069800;28;20585;-79
2022/12/26 03:28:21;;;;;;;11.80;5.32;;;;;;;3.17;78.91;102305.50;5070167;28;20085;-80
2022/12/26 03:30:50;;;;;;;10.63;7.60;;;;;;;3.14;78.53;102313.13;5036236;28;20028;-79
2022/12/26 03:36:28;;;;;;;9.65;5.47;;;;;;;3.04;78.91;102306.22;5069396;28;20116;-79
2022/12/26 04:19:22;;;;;;;5.65;4.78;;;;;;;3.08;78.50;102320.78;5055277;28;20025;-79
2022/12/26 04:19:48;;;;;;;4.00;2.42;;;;;;;2.71;78.08;102354.47;5055321;28;20051;-79
2022/12/26 04:44:46;;;;;;;5.88;3.42;;;;;;;2.53;79.17;102353.41;5072708;28;20036;-79
2022/12/26 04:47:11;;;;;;;10.77;4.43;;;;;;;2.46;78.93;102349.09;5072190;28;20029;-78
2022/12/26 04:55:12;;;;;;;4.45;3.75;;;;;;;2.40;79.37;102374.56;5071946;28;20039;-79
2022/12/26 04:57:37;;;;;;;6.30;3.55;;;;;;;2.41;79.41;102371.16;5055605;28;20103;-79
2022/12/26 05:00:03;;;;;;;2.75;2.42;;;;;;;2.42;79.37;102377.97;5071971;28;20054;-78
2022/12/26 05:10:40;;;;;;;7.32;4.35;;;;;;;2.16;79.09;102333.38;5057830;28;20511;-80
2022/12/26 05:13:06;;;;;;;8.90;5.50;;;;;;;2.45;79.06;102387.38;5055387;28;20029;-79
2022/12/26 05:28:40;;;;;;;6.25;4.68;;;;;;;2.52;78.78;102394.28;5054988;28;20043;-80
2022/12/26 05:29:13;;;;;;;9.18;5.85;;;;;;;2.38;78.75;102391.56;5071569;28;20039;-80
2022/12/26 05:31:38;;;;;;;7.50;5.18;;;;;;;2.51;78.49;102407.91;5071354;28;20024;-80
2022/12/26 05:34:05;;;;;;;11.00;6.13;;;;;;;2.41;78.30;102400.97;5071567;28;20479;-79
2022/12/26 05:36:40;;;;;;;11.68;5.20;;;;;;;2.44;78.22;102400.97;5071594;28;20028;-79
2022/12/26 05:39:06;;;;;;;6.65;5.18;;;;;;;2.47;78.79;102416.38;5055116;28;20024;-79
2022/12/26 05:41:31;;;;;;;9.07;5.30;;;;;;;2.43;78.40;102420.56;5054873;28;20043;-79
2022/12/26 05:43:57;;;;;;;13.52;7.20;;;;;;;2.42;78.23;102413.75;5054372;28;20032;-79
2022/12/26 05:46:22;;;;;;;9.32;6.13;;;;;;;2.39;78.27;102406.03;5037991;28;20029;-78
2022/12/26 05:48:48;;;;;;;10.48;6.68;;;;;;;2.18;78.62;102383.63;5053955;28;20410;-79
2022/12/26 05:51:13;;;;;;;10.82;7.55;;;;;;;2.29;78.75;102409.31;5070918;28;20092;-79
2022/12/26 05:53:39;;;;;;;8.93;7.82;;;;;;;2.22;79.06;102399.84;5037905;28;20085;-79
2022/12/26 05:56:12;;;;;;;12.90;7.57;;;;;;;2.24;78.89;102403.28;5070857;28;20099;-79
2022/12/26 05:58:38;;;;;;;10.73;6.20;;;;;;;2.13;78.49;102392.91;5054259;28;20050;-79
2022/12/26 06:01:17;;;;;;;6.28;5.07;;;;;;;2.23;78.39;102402.41;5071120;28;20028;-79
2022/12/26 06:03:48;;;;;;;11.10;6.50;;;;;;;2.21;78.56;102398.13;5039437;28;20572;-79
2022/12/26 06:06:13;;;;;;;11.68;6.57;;;;;;;2.22;78.61;102402.41;5054436;28;20025;-79
2022/12/26 06:08:39;;;;;;;12.23;7.60;;;;;;;2.26;78.81;102414.34;5070876;28;20028;-79
2022/12/26 06:11:05;;;;;;;12.98;6.70;;;;;;;2.21;78.68;102410.91;5053961;28;20043;-79
2022/12/26 06:13:31;;;;;;;8.10;6.90;;;;;;;2.27;78.76;102426.31;5070785;28;20028;-79
2022/12/26 06:15:57;;;;;;;14.73;7.28;;;;;;;2.24;78.65;102410.94;5053872;28;20028;-79
2022/12/26 06:18:23;;;;;;;14.45;8.63;;;;;;;2.26;78.75;102433.13;5072034;28;20639;-79
2022/12/26 06:20:48;;;;;;;18.02;8.30;;;;;;;2.15;79.05;102418.47;5070313;28;20025;-80
2022/12/26 06:23:14;;;;;;;16.20;10.30;;;;;;;2.24;79.13;102441.56;5053794;28;20059;-81
2022/12/26 06:25:39;;;;;;;13.63;6.18;;;;;;;2.13;78.93;102435.47;5070833;28;20490;-79
2022/12/26 06:28:05;;;;;;;9.30;6.55;;;;;;;2.18;79.17;102436.41;5070487;28;20028;-79
2022/12/26 06:30:30;;;;;;;14.93;6.68;;;;;;;2.14;79.25;102429.50;5053816;28;20043;-79
2022/12/26 06:32:55;;;;;;;16.17;10.90;;;;;;;2.21;79.38;102449.19;5087038;28;20033;-79
2022/12/26 06:35:21;;;;;;;13.27;8.10;;;;;;;2.17;79.92;102448.31;5070063;28;20033;-79
2022/12/26 06:37:46;;;;;;;9.02;7.05;;;;;;;2.20;79.75;102448.34;5053940;28;20032;-79
2022/12/26 06:40:12;;;;;;;11.77;8.63;;;;;;;2.29;79.72;102450.19;5053567;28;20024;-79
2022/12/26 06:42:37;;;;;;;10.50;6.45;;;;;;;2.01;79.63;102396.16;5036832;28;20039;-79
2022/12/26 06:45:03;;;;;;;11.07;8.85;;;;;;;2.22;80.16;102435.59;5070125;28;20036;-79
2022/12/26 06:47:29;;;;;;;13.95;9.75;;;;;;;2.36;79.89;102446.00;5036775;28;20482;-79
2022/12/26 06:49:54;;;;;;;17.42;9.43;;;;;;;2.38;79.80;102450.31;5036600;28;20031;-79
2022/12/26 06:52:20;;;;;;;19.52;9.38;;;;;;;2.41;80.08;102447.78;5069849;28;20540;-79
2022/12/26 06:54:45;;;;;;;15.02;7.53;;;;;;;2.29;79.98;102422.09;5069616;28;20035;-79
2022/12/26 06:57:11;;;;;;;15.95;9.65;;;;;;;2.41;80.35;102441.81;5036649;28;20035;-79
2022/12/26 06:59:36;;;;;;;12.15;8.32;;;;;;;2.37;80.52;102420.50;5052476;28;20084;-79
2022/12/26 07:02:01;;;;;;;13.60;10.18;;;;;;;2.16;80.53;102374.22;5069572;28;20114;-78
2022/12/26 07:04:27;;;;;;;14.43;9.32;;;;;;;2.44;80.34;102417.16;5070194;28;20032;-79
2022/12/26 07:06:52;;;;;;;15.93;10.05;;;;;;;2.37;80.19;102394.97;5036538;28;20029;-79
2022/12/26 07:09:18;;;;;;;16.08;10.57;;;;;;;2.66;80.11;102432.81;5069612;28;20592;-79
2022/12/26 07:11:45;;;;;;;12.25;8.10;;;;;;;2.70;80.32;102444.75;5053389;28;20116;-80
2022/12/26 07:14:11;;;;;;;14.05;7.63;;;;;;;2.70;80.24;102440.50;5053301;28;20029;-79
2022/12/26 07:16:38;;;;;;;10.05;7.70;;;;;;;2.73;79.57;102430.31;5069403;28;20036;-80
2022/12/26 07:19:03;;;;;;;15.80;10.15;;;;;;;2.84;79.77;102448.34;5052626;28;20044;-79
2022/12/26 07:21:28;;;;;;;18.10;10.20;;;;;;;2.90;79.96;102450.97;5069587;28;20031;-79
2022/12/26 07:23:54;;;;;;;22.35;12.07;;;;;;;3.02;79.84;102463.03;5069154;28;20060;-80
2022/12/26 07:26:20;;;;;;;31.58;12.18;;;;;;;3.02;79.75;102461.34;5052991;28;20021;-79
2022/12/26 07:28:46;;;;;;;24.00;14.10;;;;;;;3.16;79.68;102482.81;5052735;28;20039;-79
2022/12/26 07:31:18;;;;;;;19.35;11.48;;;;;;;3.22;79.38;102486.28;5052734;28;20425;-80
2022/12/26 07:33:48;;;;;;;31.20;12.60;;;;;;;3.30;78.83;102474.44;5069292;28;20097;-79
2022/12/26 07:36:14;;;;;;;19.58;11.90;;;;;;;3.12;79.04;102445.25;5052597;28;20494;-79
2022/12/26 07:38:39;;;;;;;15.50;9.05;;;;;;;3.40;78.85;102476.25;5069161;28;20146;-79
2022/12/26 07:41:56;;;;;;;23.55;10.38;;;;;;;3.48;78.81;102489.13;5069093;28;20025;-79
2022/12/26 07:43:50;;;;;;;12.80;8.68;;;;;;;3.65;78.22;102482.47;5069037;28;20044;-79
2022/12/26 07:46:16;;;;;;;13.88;9.07;;;;;;;3.65;78.30;102465.41;5052527;28;20052;-79
2022/12/26 07:48:41;;;;;;;25.15;10.63;;;;;;;3.76;78.58;102482.56;5052101;28;20067;-79
2022/12/26 07:51:06;;;;;;;19.58;9.27;;;;;;;3.85;78.31;102480.09;5069190;28;20020;-80
2022/12/26 07:53:32;;;;;;;14.88;8.60;;;;;;;3.83;78.89;102471.50;5052564;28;20146;-79
2022/12/26 07:55:58;;;;;;;10.35;6.80;;;;;;;3.96;78.21;102478.47;5052326;28;20451;-79
2022/12/26 07:58:24;;;;;;;13.38;8.57;;;;;;;4.02;78.12;102483.63;5052545;28;20051;-79
2022/12/26 08:00:49;;;;;;;14.52;10.43;;;;;;;4.03;78.45;102475.09;5069142;28;20391;-79
2022/12/26 08:03:15;;;;;;;22.17;8.80;;;;;;;4.08;78.29;102483.69;5069659;28;20387;-79
2022/12/26 08:05:44;;;;;;;27.02;8.93;;;;;;;4.17;78.00;102494.00;5052545;28;20029;-79
2022/12/26 08:08:09;;;;;;;10.65;8.05;;;;;;;4.25;78.78;102501.75;5069348;28;20024;-79
2022/12/26 08:10:35;;;;;;;11.43;6.78;;;;;;;4.29;78.54;102496.63;5052322;28;20047;-79
2022/12/26 08:13:00;;;;;;;7.90;5.13;;;;;;;4.39;78.75;102504.38;5039597;28;20085;-79
2022/12/26 08:15:26;;;;;;;10.38;6.47;;;;;;;4.27;78.46;102475.28;5039725;28;20060;-79
2022/12/26 08:17:51;;;;;;;12.35;7.72;;;;;;;4.43;77.97;102491.63;5039346;28;20016;-78
2022/12/26 08:20:17;;;;;;;17.95;9.15;;;;;;;4.52;76.96;102496.81;5056095;28;20052;-78
2022/12/26 08:22:42;;;;;;;19.38;6.60;;;;;;;4.59;76.26;102498.53;5089553;28;20486;-78
2022/12/26 08:25:08;;;;;;;17.73;10.85;;;;;;;4.59;76.10;102492.53;5072551;28;20086;-79
2022/12/26 08:27:34;;;;;;;20.65;9.90;;;;;;;4.51;76.27;102468.56;5072499;28;20553;-79
2022/12/26 08:29:59;;;;;;;27.60;12.85;;;;;;;4.73;76.19;102498.63;5073058;28;20111;-79
2022/12/26 08:32:25;;;;;;;19.35;11.98;;;;;;;4.81;75.87;102503.75;5038933;28;20035;-79
2022/12/26 08:34:50;;;;;;;24.45;11.18;;;;;;;4.79;75.89;102501.19;5039278;28;20033;-79
2022/12/26 08:37:16;;;;;;;21.00;12.13;;;;;;;4.89;74.99;102502.09;5072312;28;20029;-79
2022/12/26 08:39:41;;;;;;;19.25;8.35;;;;;;;4.86;74.34;102485.00;5055905;28;20067;-79
2022/12/26 08:42:07;;;;;;;14.70;10.63;;;;;;;4.97;74.18;102504.69;5055806;28;20482;-79
2022/12/26 08:44:32;;;;;;;19.67;9.02;;;;;;;5.02;73.84;102508.16;5055714;28;20040;-78
2022/12/26 08:46:58;;;;;;;26.42;9.60;;;;;;;4.98;74.59;102501.28;5072388;28;20033;-79
2022/12/26 08:49:23;;;;;;;17.45;9.85;;;;;;;5.05;74.04;102491.06;5072100;28;20033;-80
2022/12/26 08:51:49;;;;;;;17.50;10.13;;;;;;;5.10;73.84;102491.91;5072351;28;20074;-79
2022/12/26 08:54:14;;;;;;;15.30;6.80;;;;;;;5.22;74.23;102505.66;5055651;28;20474;-79
2022/12/26 08:56:40;;;;;;;16.13;7.70;;;;;;;5.22;74.47;102488.56;5038932;28;20044;-79
2022/12/26 08:59:05;;;;;;;15.70;6.78;;;;;;;5.27;74.41;102486.84;5088816;28;20033;-79
2022/12/26 09:01:31;;;;;;;18.60;7.28;;;;;;;5.36;73.99;102474.03;5072764;28;20028;-79
2022/12/26 09:03:58;;;;;;;7.80;5.88;;;;;;;5.45;72.68;102466.34;5071658;28;20108;-79
2022/12/26 09:06:24;;;;;;;13.40;7.55;;;;;;;5.64;72.26;102482.66;5038966;28;20020;-80
2022/12/26 09:08:49;;;;;;;13.07;7.00;;;;;;;5.68;71.40;102473.22;5055508;28;20425;-78
2022/12/26 09:11:17;;;;;;;9.07;5.32;;;;;;;5.68;71.48;102471.50;5055396;28;20060;-79
2022/12/26 09:13:43;;;;;;;11.27;6.70;;;;;;;5.63;70.90;102451.84;5055610;28;20024;-79
2022/12/26 09:16:08;;;;;;;11.02;5.60;;;;;;;5.74;69.38;102474.09;5054963;28;20085;-79
2022/12/26 09:18:34;;;;;;;10.40;4.32;;;;;;;5.75;69.30;102456.97;5072987;28;20123;-79
2022/12/26 09:21:03;;;;;;;8.90;5.55;;;;;;;5.78;69.21;102480.06;5055162;28;20107;-79
2022/12/26 09:23:30;;;;;;;13.68;6.43;;;;;;;5.81;69.17;102471.53;5070323;28;20522;-79
2022/12/26 09:26:02;;;;;;;12.65;6.05;;;;;;;5.85;68.74;102463.81;5054922;28;20036;-79
2022/12/26 09:28:28;;;;;;;19.65;8.93;;;;;;;5.79;67.86;102452.69;5055181;28;20043;-79
2022/12/26 09:30:53;;;;;;;13.90;6.85;;;;;;;5.97;67.70;102474.13;5071271;28;20025;-79
2022/12/26 09:33:19;;;;;;;12.20;6.68;;;;;;;6.12;67.41;102487.84;5038096;28;20486;-78
2022/12/26 09:35:44;;;;;;;13.65;7.45;;;;;;;6.03;67.21;102456.13;5071524;28;20086;-79
2022/12/26 09:38:10;;;;;;;12.65;4.18;;;;;;;6.32;66.22;102478.38;5054397;28;20514;-79
2022/12/26 09:41:06;;;;;;;14.15;6.55;;;;;;;6.22;66.73;102476.69;5071546;28;20100;-79
2022/12/26 09:43:37;;;;;;;10.63;8.60;;;;;;;6.29;66.91;102479.25;5070559;28;20029;-79
2022/12/26 09:46:16;;;;;;;8.90;5.40;;;;;;;6.33;65.26;102473.22;5071165;28;20036;-79
2022/12/26 09:49:12;;;;;;;9.73;6.10;;;;;;;6.40;65.27;102475.81;5055066;28;20036;-79
2022/12/26 09:51:38;;;;;;;14.55;7.07;;;;;;;6.43;65.69;102474.06;5071236;28;20067;-79
2022/12/26 09:54:05;;;;;;;15.93;9.45;;;;;;;6.35;67.26;102459.50;5054573;28;20631;-80
2022/12/26 09:56:31;;;;;;;14.38;7.18;;;;;;;6.40;68.08;102463.78;5054222;28;20031;-79
2022/12/26 09:59:05;;;;;;;19.67;8.13;;;;;;;6.49;67.58;102463.78;5054158;28;20060;-79
2022/12/26 10:01:34;;;;;;;12.02;7.47;;;;;;;6.73;66.03;102457.69;5054850;28;20037;-79
2022/12/26 10:04:01;;;;;;;16.67;9.00;;;;;;;6.83;66.14;102455.94;5037616;28;20437;-79
2022/12/26 10:06:30;;;;;;;18.73;7.93;;;;;;;6.92;66.08;102453.31;5070965;28;20107;-80
2022/12/26 10:09:08;;;;;;;20.35;9.02;;;;;;;6.88;65.91;102449.91;5053881;28;20068;-79
2022/12/26 10:11:52;;;;;;;17.23;9.65;;;;;;;6.90;64.77;102430.19;5070705;28;20059;-80
2022/12/26 10:14:26;;;;;;;12.20;7.57;;;;;;;7.11;64.69;102439.50;5070170;28;20086;-78
2022/12/26 10:17:07;;;;;;;17.20;7.75;;;;;;;7.12;64.23;102414.63;5070558;28;20024;-79
2022/12/26 10:20:07;;;;;;;18.75;7.43;;;;;;;7.25;63.98;102428.25;5055537;28;20052;-79
2022/12/26 10:22:47;;;;;;;16.80;9.02;;;;;;;7.28;63.97;102423.97;5070205;28;20075;-80
2022/12/26 10:25:17;;;;;;;16.30;7.22;;;;;;;7.29;63.71;102415.38;5070485;28;20077;-80
2022/12/26 10:27:43;;;;;;;26.30;10.20;;;;;;;7.38;63.61;102410.16;5037448;28;20031;-80
2022/12/26 10:30:15;;;;;;;12.98;8.43;;;;;;;7.51;63.60;102398.03;5053763;28;20033;-79
2022/12/26 10:32:43;;;;;;;19.85;10.55;;;;;;;7.46;62.71;102392.91;5037427;28;20085;-80
2022/12/26 10:35:30;;;;;;;16.67;8.15;;;;;;;7.58;62.59;102410.00;5070124;28;20036;-79
2022/12/26 10:37:58;;;;;;;19.55;9.38;;;;;;;7.47;62.29;102391.19;5053591;28;20025;-79
2022/12/26 10:40:28;;;;;;;17.95;10.40;;;;;;;7.60;62.19;102403.13;5054067;28;20037;-79
2022/12/26 10:42:55;;;;;;;31.08;11.57;;;;;;;7.70;62.01;102399.59;5053194;28;20422;-79
2022/12/26 10:45:42;;;;;;;20.70;11.13;;;;;;;7.86;62.19;102399.44;5036896;28;20031;-79
2022/12/26 10:48:07;;;;;;;19.23;11.05;;;;;;;7.73;61.68;102360.91;5070836;28;20460;-79
2022/12/26 10:50:33;;;;;;;23.08;10.95;;;;;;;8.04;61.43;102388.94;5036356;28;20032;-80
2022/12/26 10:52:59;;;;;;;18.63;10.90;;;;;;;8.02;61.40;102376.09;5069844;28;20063;-79
2022/12/26 10:55:31;;;;;;;34.30;13.15;;;;;;;7.94;60.97;102351.25;5036336;28;20036;-80
2022/12/26 10:57:57;;;;;;;22.92;11.80;;;;;;;8.01;61.80;102358.06;5053001;28;20619;-80
2022/12/26 11:00:27;;;;;;;17.88;11.70;;;;;;;8.09;61.40;102361.41;5053245;28;20029;-81
2022/12/26 11:03:06;;;;;;;24.30;11.93;;;;;;;8.07;61.36;102352.00;5053033;28;20520;-79
2022/12/26 11:05:32;;;;;;;29.35;11.90;;;;;;;8.07;61.52;102350.28;5069594;28;20025;-80
2022/12/26 11:08:13;;;;;;;29.35;14.10;;;;;;;8.18;61.00;102348.41;5052793;28;20028;-79
2022/12/26 11:10:39;;;;;;;25.17;12.30;;;;;;;8.03;61.10;102315.06;5037153;28;20025;-80
2022/12/26 11:13:06;;;;;;;22.45;11.90;;;;;;;8.16;60.78;102326.97;5052890;28;20035;-79
2022/12/26 11:15:36;;;;;;;27.60;14.68;;;;;;;8.20;60.48;102325.19;5036451;28;20033;-79
2022/12/26 11:18:32;;;;;;;31.05;13.55;;;;;;;8.33;60.74;102317.28;5069476;28;20024;-79
2022/12/26 11:21:11;;;;;;;65.75;23.25;;;;;;;8.32;59.76;102282.06;5052106;28;20029;-79
2022/12/26 11:23:36;;;;;;;28.88;12.88;;;;;;;8.26;60.49;102271.84;5069220;28;20421;-79
2022/12/26 11:26:17;;;;;;;29.08;13.82;;;;;;;8.47;59.99;102298.25;5070449;28;20504;-79
2022/12/26 11:28:43;;;;;;;21.42;13.55;;;;;;;8.45;60.05;102305.13;5054311;28;20021;-79
2022/12/26 11:31:19;;;;;;;27.23;12.07;;;;;;;8.50;60.26;102298.19;5052524;28;20035;-79
2022/12/26 11:33:44;;;;;;;24.23;12.98;;;;;;;8.60;59.74;102307.50;5053813;28;20021;-79
2022/12/26 11:36:22;;;;;;;26.30;11.95;;;;;;;8.69;59.59;102302.22;5052581;28;20105;-79
2022/12/26 11:38:50;;;;;;;21.25;9.88;;;;;;;8.67;59.85;102298.81;5053078;28;20028;-79
2022/12/26 11:41:42;;;;;;;22.63;12.20;;;;;;;8.84;59.31;102301.13;5035888;28;20457;-79
2022/12/26 11:44:25;;;;;;;30.00;12.48;;;;;;;8.79;59.54;102288.31;5054108;28;20028;-79
2022/12/26 11:47:11;;;;;;;22.00;10.63;;;;;;;8.91;59.59;102301.03;5051962;28;20051;-79
2022/12/26 11:49:44;;;;;;;27.98;11.10;;;;;;;8.88;59.38;102297.66;5069460;28;20046;-79
2022/12/26 11:52:28;;;;;;;14.23;8.75;;;;;;;9.01;59.13;102312.06;5036857;28;20028;-80
2022/12/26 11:54:54;;;;;;;15.57;8.70;;;;;;;9.03;59.07;102309.44;5068864;28;20032;-79
2022/12/26 11:57:30;;;;;;;22.70;9.45;;;;;;;8.84;59.20;102280.47;5052283;28;20029;-79
2022/12/26 12:00:13;;;;;;;29.33;8.77;;;;;;;9.02;59.32;102300.00;5052397;28;20029;-80
2022/12/26 12:02:38;;;;;;;19.90;8.75;;;;;;;9.02;58.93;102290.53;5054625;28;20029;-79
2022/12/26 12:05:26;;;;;;;20.30;8.85;;;;;;;9.09;58.27;102297.31;5069265;28;20032;-79
2022/12/26 12:08:02;;;;;;;21.02;9.55;;;;;;;9.05;58.55;102294.81;5069338;28;20032;-79
2022/12/26 12:10:55;;;;;;;18.20;8.98;;;;;;;9.07;58.66;102293.91;5068625;28;20551;-79
2022/12/26 12:13:35;;;;;;;19.33;9.85;;;;;;;9.08;58.64;102297.34;5070301;28;20064;-79
2022/12/26 12:16:22;;;;;;;22.80;10.63;;;;;;;9.10;58.60;102295.56;5069116;28;20024;-80
2022/12/26 12:18:59;;;;;;;15.98;9.45;;;;;;;9.12;58.49;102284.34;5070129;28;20083;-79
2022/12/26 12:21:40;;;;;;;21.33;10.40;;;;;;;9.13;58.22;102282.59;5069791;28;20032;-80
2022/12/26 12:24:19;;;;;;;24.63;12.30;;;;;;;9.08;58.12;102277.53;5068448;28;20028;-79
2022/12/26 12:27:05;;;;;;;19.95;10.77;;;;;;;9.03;58.22;102278.47;5052290;28;20830;-79
2022/12/26 12:29:59;;;;;;;21.60;10.98;;;;;;;8.99;58.37;102274.25;5069939;28;20033;-82
2022/12/26 12:32:25;;;;;;;24.30;10.27;;;;;;;8.88;58.49;102275.25;5070046;28;20033;-79
2022/12/26 12:34:53;;;;;;;21.92;11.48;;;;;;;8.89;59.15;102276.13;5070057;28;20028;-79
2022/12/26 12:37:59;;;;;;;21.52;9.75;;;;;;;9.00;59.01;102266.47;5068438;28;20029;-79
2022/12/26 12:41:03;;;;;;;16.48;9.60;;;;;;;9.04;58.96;102254.34;5055846;28;20147;-80
2022/12/26 12:44:21;;;;;;;20.38;10.02;;;;;;;9.24;58.64;102266.94;5065875;28;20064;-80
2022/12/26 12:46:56;;;;;;;23.25;10.63;;;;;;;9.14;58.92;102268.81;5057362;28;20036;-79
2022/12/26 12:49:43;;;;;;;22.40;13.10;;;;;;;9.10;58.85;102278.34;5070234;28;20032;-80
2022/12/26 12:52:14;;;;;;;23.25;11.45;;;;;;;9.20;59.06;102279.03;5068093;28;20060;-79
2022/12/26 12:54:52;;;;;;;28.63;11.18;;;;;;;9.15;58.62;102275.72;5069655;28;20406;-79
2022/12/26 12:57:42;;;;;;;14.38;9.32;;;;;;;9.22;58.78;102291.94;5069507;28;20064;-79
2022/12/26 13:00:16;;;;;;;20.00;8.50;;;;;;;9.18;59.07;102291.13;5072141;28;20028;-80
2022/12/26 13:02:48;;;;;;;24.00;8.88;;;;;;;9.19;58.87;102290.25;5072011;28;20050;-81
2022/12/26 13:05:23;;;;;;;14.87;8.03;;;;;;;9.22;59.38;102286.75;5073366;28;20514;-81
2022/12/26 13:08:25;;;;;;;21.02;9.27;;;;;;;9.20;59.27;102284.22;5054705;28;20275;-79
2022/12/26 13:10:58;;;;;;;16.43;6.93;;;;;;;9.11;59.87;102284.38;5049547;28;20040;-80
2022/12/26 13:13:23;;;;;;;;;;;;;;;9.13;59.39;102286.03;5056608;28;20478;-79
2022/12/26 13:15:49;;;;;;;18.33;8.38;;;;;;;9.02;59.58;102269.03;5071861;28;19912;-80
2022/12/26 13:18:17;;;;;;;22.27;9.50;;;;;;;8.79;59.73;102226.38;5071656;28;20482;-80
2022/12/26 13:20:52;;;;;;;18.23;9.25;;;;;;;8.89;59.89;102256.31;5054703;28;20020;-79
2022/12/26 13:26:29;;;;;;;18.50;7.72;;;;;;;8.99;60.41;102271.66;5072117;28;20552;-79
2022/12/26 13:29:18;;;;;;;23.65;10.00;;;;;;;8.97;60.70;102266.53;5071683;28;20119;-79
2022/12/26 13:31:43;;;;;;;16.02;9.45;;;;;;;8.95;60.60;102259.66;5071668;28;20074;-79
2022/12/26 13:34:17;;;;;;;17.27;9.27;;;;;;;8.88;60.90;102243.44;5054827;28;20028;-79
2022/12/26 13:36:51;;;;;;;21.52;9.07;;;;;;;8.83;60.86;102259.00;5038902;28;20512;-80
2022/12/26 13:39:22;;;;;;;16.27;8.77;;;;;;;8.86;61.43;102268.44;5071269;28;20509;-79
2022/12/26 13:44:35;;;;;;;15.00;7.18;;;;;;;8.77;61.97;102246.19;5071532;28;20035;-80
2022/12/26 13:47:01;;;;;;;24.52;8.90;;;;;;;8.81;61.94;102257.31;5054743;28;20028;-79
2022/12/26 13:49:26;;;;;;;22.83;10.02;;;;;;;8.90;61.74;102255.44;5054674;28;20028;-80
2022/12/26 13:51:53;;;;;;;24.35;12.00;;;;;;;8.83;62.11;102251.25;5072057;28;20025;-80